Time;durP1;ratioP1;P1;durP2;ratioP2;P2;SDS_P1;SDS_P2;PMS_P1;PMS_P2;Temp;Humidity;BMP_temperature;BMP_pressure;BME280_temperature;BME280_humidity;BME280_pressure;Samples;Min_cycle;Max_cycle;Signal;HPM_P1;HPM_P2
2021/05/25 00:01:51;;;;;;;3.60;1.82;;;;;;;13.45;62.34;100110.06;1675865;84;20918;-69
2021/05/25 00:04:17;;;;;;;2.52;1.57;;;;;;;13.42;62.41;100105.10;1673327;85;21469;-69
2021/05/25 00:06:44;;;;;;;4.35;1.85;;;;;;;13.39;62.51;100093.95;1673606;85;20981;-69
2021/05/25 00:09:10;;;;;;;3.27;1.77;;;;;;;13.36;62.60;100092.50;1673229;85;21564;-69
2021/05/25 00:11:36;;;;;;;2.75;1.20;;;;;;;13.34;62.69;100087.83;1673390;84;21142;-69
2021/05/25 00:14:04;;;;;;;6.97;1.70;;;;;;;13.32;62.77;100079.17;1673380;85;21670;-69
2021/05/25 00:16:30;;;;;;;4.15;1.57;;;;;;;13.31;62.87;100078.85;1673478;85;21080;-69
2021/05/25 00:18:56;;;;;;;2.77;1.45;;;;;;;13.30;62.98;100081.74;1681006;84;21077;-69
2021/05/25 00:21:22;;;;;;;3.15;1.67;;;;;;;13.28;63.07;100079.24;1701830;84;21017;-69
2021/05/25 00:23:48;;;;;;;2.30;1.27;;;;;;;13.27;63.18;100080.26;1701865;84;21115;-69
2021/05/25 00:26:14;;;;;;;3.50;1.80;;;;;;;13.26;63.28;100075.95;1701627;84;20992;-69
2021/05/25 00:28:41;;;;;;;4.20;1.77;;;;;;;13.25;63.38;100072.11;1701792;84;20922;-69
2021/05/25 00:31:07;;;;;;;13.20;2.20;;;;;;;13.23;63.48;100070.95;1701523;84;21052;-69
2021/05/25 00:33:33;;;;;;;10.98;5.67;;;;;;;13.22;63.59;100066.64;1701976;84;20898;-69
2021/05/25 00:36:00;;;;;;;3.77;1.70;;;;;;;13.20;63.71;100056.63;1701917;84;21117;-69
2021/05/25 00:38:26;;;;;;;6.00;2.85;;;;;;;13.18;63.82;100051.98;1701624;84;21064;-69
2021/05/25 00:40:52;;;;;;;4.20;1.65;;;;;;;13.15;63.94;100051.55;1701950;83;21032;-69
2021/05/25 00:43:18;;;;;;;3.52;1.60;;;;;;;13.14;64.05;100052.05;1702003;84;21049;-69
2021/05/25 00:45:44;;;;;;;3.22;1.50;;;;;;;13.11;64.20;100051.11;1702181;84;20981;-69
2021/05/25 00:48:10;;;;;;;14.20;7.90;;;;;;;13.10;64.30;100048.11;1702126;84;21592;-69
2021/05/25 00:50:37;;;;;;;6.65;3.20;;;;;;;13.09;64.39;100044.27;1702061;84;21081;-69
2021/05/25 00:53:04;;;;;;;3.42;1.90;;;;;;;13.08;64.51;100041.27;1701684;84;21580;-69
2021/05/25 00:55:35;;;;;;;2.62;1.80;;;;;;;13.05;64.59;100037.64;1701960;84;21078;-69
2021/05/25 00:58:04;;;;;;;3.00;1.40;;;;;;;13.03;64.72;100038.66;1701987;83;21033;-70
2021/05/25 01:00:37;;;;;;;2.47;1.60;;;;;;;13.02;64.79;100033.48;1702225;84;21155;-69
2021/05/25 01:03:04;;;;;;;3.70;1.60;;;;;;;13.01;64.90;100034.53;1701881;83;21573;-70
2021/05/25 01:05:31;;;;;;;9.38;2.80;;;;;;;12.98;65.04;100037.60;1701545;84;21044;-69
2021/05/25 01:07:58;;;;;;;2.80;1.82;;;;;;;12.96;65.14;100035.61;1702034;84;21600;-69
2021/05/25 01:10:36;;;;;;;7.15;3.95;;;;;;;12.94;65.25;100026.45;1701714;84;21049;-69
2021/05/25 01:13:04;;;;;;;4.42;2.72;;;;;;;12.92;65.37;100027.65;1701805;84;21222;-70
2021/05/25 01:15:30;;;;;;;4.15;2.67;;;;;;;12.91;65.49;100028.69;1701802;83;21056;-69
2021/05/25 01:17:57;;;;;;;6.25;2.37;;;;;;;12.89;65.60;100034.73;1702044;84;21052;-69
2021/05/25 01:20:27;;;;;;;6.33;2.40;;;;;;;12.91;65.71;100036.72;1701738;84;21640;-69
2021/05/25 01:22:53;;;;;;;4.12;2.47;;;;;;;12.90;65.78;100035.05;1701632;84;21037;-69
2021/05/25 01:25:19;;;;;;;3.47;1.45;;;;;;;12.89;65.89;100032.05;1702102;84;21584;-69
2021/05/25 01:27:55;;;;;;;2.72;1.62;;;;;;;12.89;66.04;100031.55;1701892;83;21073;-69
2021/05/25 01:30:23;;;;;;;2.47;1.62;;;;;;;12.89;66.16;100025.36;1700447;83;21061;-69
2021/05/25 01:32:49;;;;;;;3.27;1.87;;;;;;;12.87;66.29;100022.06;1701987;84;21068;-69
2021/05/25 01:35:15;;;;;;;2.10;1.37;;;;;;;12.84;66.38;100022.45;1701764;84;20898;-70
2021/05/25 01:37:41;;;;;;;5.05;1.98;;;;;;;12.84;66.51;100017.11;1701933;84;21807;-70
2021/05/25 01:40:08;;;;;;;9.38;3.02;;;;;;;12.83;66.61;100008.75;1701965;84;21033;-69
2021/05/25 01:42:36;;;;;;;8.28;3.47;;;;;;;12.79;66.76;100008.31;1702071;84;21113;-69
2021/05/25 01:45:03;;;;;;;5.67;2.30;;;;;;;12.75;66.89;99998.17;1702051;83;21536;-69
2021/05/25 01:47:29;;;;;;;2.98;2.00;;;;;;;12.73;67.00;100004.25;1701844;84;21120;-70
2021/05/25 01:50:11;;;;;;;4.78;2.20;;;;;;;12.70;67.08;100009.98;1702160;84;21151;-70
2021/05/25 01:52:23;;;;;;;5.45;2.95;;;;;;;12.68;67.22;100018.70;1699527;83;21652;-70
2021/05/25 01:54:49;;;;;;;2.87;1.87;;;;;;;12.67;67.37;100017.03;1702245;84;20890;-70
2021/05/25 01:57:15;;;;;;;3.95;2.80;;;;;;;12.67;67.48;100006.33;1702284;83;20948;-70
2021/05/25 01:59:41;;;;;;;2.90;1.87;;;;;;;12.63;67.66;99986.36;1723040;83;21659;-69
2021/05/25 02:02:07;;;;;;;2.77;1.70;;;;;;;12.58;67.86;99984.27;1722730;83;21137;-69
2021/05/25 02:04:33;;;;;;;2.05;1.55;;;;;;;12.56;68.05;99986.82;1722801;83;21798;-69
2021/05/25 02:06:59;;;;;;;7.20;1.57;;;;;;;12.56;68.17;99997.52;1722292;83;21032;-70
2021/05/25 02:09:25;;;;;;;2.87;1.87;;;;;;;12.57;68.29;100003.16;1722923;83;20973;-70
2021/05/25 02:11:51;;;;;;;2.35;1.45;;;;;;;12.55;68.36;99998.02;1723129;83;21073;-70
2021/05/25 02:14:17;;;;;;;3.80;1.70;;;;;;;12.52;68.47;100005.90;1722708;83;21249;-70
2021/05/25 02:16:43;;;;;;;3.42;2.05;;;;;;;12.48;68.57;100005.99;1723009;83;20921;-70
2021/05/25 02:19:09;;;;;;;6.60;2.92;;;;;;;12.47;68.67;99997.64;1722291;83;20921;-70
2021/05/25 02:21:36;;;;;;;7.15;2.98;;;;;;;12.45;68.78;99999.66;1722884;83;21069;-70
2021/05/25 02:24:02;;;;;;;3.20;1.92;;;;;;;12.48;68.84;100012.68;1722589;83;21044;-70
2021/05/25 02:26:28;;;;;;;6.22;2.02;;;;;;;12.48;68.94;100005.99;1723064;83;21715;-70
2021/05/25 02:28:55;;;;;;;6.58;3.70;;;;;;;12.47;69.02;100002.99;1722973;83;20981;-69
2021/05/25 02:31:21;;;;;;;6.08;2.80;;;;;;;12.48;69.12;99997.97;1722498;83;21084;-70
2021/05/25 02:33:47;;;;;;;7.62;3.90;;;;;;;12.45;69.20;99994.31;1723051;83;20957;-70
2021/05/25 02:36:13;;;;;;;7.12;2.50;;;;;;;12.42;69.29;99996.03;1722904;83;21016;-70
2021/05/25 02:38:39;;;;;;;5.75;2.90;;;;;;;12.41;69.38;100005.10;1723052;83;21605;-70
2021/05/25 02:41:05;;;;;;;4.92;2.40;;;;;;;12.41;69.47;100010.45;1722738;83;20921;-70
2021/05/25 02:43:31;;;;;;;4.45;2.20;;;;;;;12.43;69.52;100012.41;1722854;83;21049;-70
2021/05/25 02:45:57;;;;;;;4.92;2.50;;;;;;;12.44;69.54;100003.37;1723069;83;21650;-70
2021/05/25 02:48:24;;;;;;;7.37;2.62;;;;;;;12.42;69.57;100000.05;1722754;82;20997;-70
2021/05/25 02:50:50;;;;;;;9.50;3.00;;;;;;;12.41;69.60;99994.41;1723111;83;21131;-70
2021/05/25 02:53:16;;;;;;;7.10;3.67;;;;;;;12.40;69.60;100004.78;1721635;83;20982;-70
2021/05/25 02:55:42;;;;;;;14.23;6.53;;;;;;;12.35;69.65;100008.52;1722974;82;21615;-70
2021/05/25 02:58:09;;;;;;;12.28;6.12;;;;;;;12.30;69.70;100008.28;1717937;83;21041;-70
2021/05/25 03:00:44;;;;;;;7.50;4.00;;;;;;;12.27;69.76;100001.98;1701977;84;21108;-70
2021/05/25 03:03:10;;;;;;;4.67;3.37;;;;;;;12.24;69.78;100002.37;1701886;84;21125;-70
2021/05/25 03:05:36;;;;;;;6.58;3.15;;;;;;;12.19;69.80;99998.09;1701839;84;21064;-70
2021/05/25 03:08:04;;;;;;;6.80;3.40;;;;;;;12.14;69.86;99999.15;1701985;83;21017;-70
2021/05/25 03:10:33;;;;;;;9.08;2.65;;;;;;;12.08;69.91;100002.59;1701742;84;21061;-70
2021/05/25 03:12:59;;;;;;;4.05;2.42;;;;;;;12.03;69.97;99997.50;1702003;84;21072;-70
2021/05/25 03:15:35;;;;;;;5.62;2.72;;;;;;;12.00;70.03;99998.69;1701900;84;21782;-70
2021/05/25 03:18:02;;;;;;;7.33;3.72;;;;;;;11.98;70.08;100004.23;1700862;83;21643;-70
2021/05/25 03:20:28;;;;;;;8.05;3.12;;;;;;;11.96;70.10;100002.24;1701932;84;21032;-70
2021/05/25 03:22:54;;;;;;;12.35;3.55;;;;;;;11.94;70.14;100003.45;1701606;84;21136;-70
2021/05/25 03:25:20;;;;;;;5.72;2.98;;;;;;;11.96;70.19;100010.80;1701657;84;21088;-70
2021/05/25 03:27:46;;;;;;;5.00;2.77;;;;;;;11.95;70.23;100015.81;1702040;84;21089;-70
2021/05/25 03:30:16;;;;;;;6.33;2.52;;;;;;;11.93;70.25;100013.31;1702142;84;21112;-70
2021/05/25 03:32:42;;;;;;;5.08;2.92;;;;;;;11.93;70.25;100015.98;1702064;84;21582;-70
2021/05/25 03:35:10;;;;;;;9.33;4.15;;;;;;;11.93;70.28;100020.50;1701850;84;20957;-70
2021/05/25 03:37:36;;;;;;;14.10;2.52;;;;;;;11.93;70.32;100009.81;1701367;84;21092;-70
2021/05/25 03:40:04;;;;;;;9.98;2.42;;;;;;;11.92;70.37;100006.84;1701833;84;21854;-70
2021/05/25 03:42:30;;;;;;;4.87;2.60;;;;;;;11.96;70.39;100006.79;1702057;84;21096;-70
2021/05/25 03:44:57;;;;;;;4.55;2.65;;;;;;;12.03;70.39;100013.54;1701953;84;21632;-70
2021/05/25 03:47:25;;;;;;;11.20;3.27;;;;;;;12.04;70.39;100017.34;1702022;84;21104;-70
2021/05/25 03:49:53;;;;;;;9.40;4.20;;;;;;;12.71;70.86;100011.62;1701171;84;21055;-70
2021/05/25 03:52:20;;;;;;;4.28;2.70;;;;;;;14.35;70.81;100002.66;1701576;84;21147;-70
2021/05/25 03:54:56;;;;;;;4.50;2.08;;;;;;;15.64;70.14;99996.24;1701310;84;21049;-70
2021/05/25 03:59:56;;;;;;;4.10;1.85;;;;;;;17.34;68.69;99996.94;1702006;83;21561;-70
2021/05/25 04:02:22;;;;;;;5.60;2.98;;;;;;;17.90;67.48;99991.33;1701956;84;21021;-71
2021/05/25 04:04:48;;;;;;;10.20;4.10;;;;;;;18.36;66.78;100002.84;1702187;84;21818;-71
2021/05/25 04:07:14;;;;;;;2.95;2.00;;;;;;;18.98;66.01;99997.92;1701350;84;21021;-71
2021/05/25 04:09:40;;;;;;;3.83;1.80;;;;;;;19.30;65.13;99995.98;1701880;84;21649;-71
2021/05/25 04:12:07;;;;;;;7.45;2.67;;;;;;;19.67;64.34;99990.30;1701958;83;21053;-71
2021/05/25 04:14:33;;;;;;;6.40;3.50;;;;;;;20.02;63.32;99982.89;1701743;84;21049;-71
2021/05/25 04:16:59;;;;;;;6.17;2.22;;;;;;;20.12;62.31;99995.82;1702118;83;21593;-71
2021/05/25 04:19:25;;;;;;;6.78;2.80;;;;;;;20.42;61.39;99998.58;1701581;84;20917;-71
2021/05/25 04:21:51;;;;;;;3.55;1.45;;;;;;;20.68;60.59;100003.09;1701965;84;22123;-71
2021/05/25 04:24:17;;;;;;;2.80;1.98;;;;;;;21.00;59.54;99997.39;1702051;84;20973;-71
2021/05/25 04:26:43;;;;;;;2.33;1.50;;;;;;;19.67;58.17;100007.88;1701991;84;21579;-71
2021/05/25 04:29:09;;;;;;;3.90;2.22;;;;;;;18.30;58.17;100015.36;1701797;84;21146;-71
2021/05/25 04:31:36;;;;;;;3.02;2.05;;;;;;;17.88;58.52;100018.52;1701762;84;21555;-71
2021/05/25 04:34:02;;;;;;;2.60;1.55;;;;;;;18.38;57.90;100027.72;1701996;83;21021;-71
2021/05/25 04:36:28;;;;;;;5.65;2.05;;;;;;;18.51;57.48;100015.95;1701433;84;21611;-71
2021/05/25 04:38:55;;;;;;;1.72;1.45;;;;;;;18.04;57.49;100015.73;1701865;84;21734;-71
2021/05/25 04:41:21;;;;;;;3.12;1.57;;;;;;;17.82;57.82;100018.61;1701724;84;21040;-71
2021/05/25 04:43:47;;;;;;;3.75;1.70;;;;;;;17.76;57.96;100023.56;1702076;84;21585;-71
2021/05/25 04:46:13;;;;;;;7.45;1.40;;;;;;;17.87;57.99;100020.91;1701752;84;20934;-71
2021/05/25 04:48:40;;;;;;;3.35;1.50;;;;;;;17.61;57.91;100025.80;1701741;84;21669;-71
2021/05/25 04:51:06;;;;;;;3.92;1.40;;;;;;;17.20;57.91;100028.59;1701707;84;21080;-71
2021/05/25 04:53:33;;;;;;;2.55;1.47;;;;;;;17.44;58.02;100025.55;1701939;84;21132;-71
2021/05/25 04:56:00;;;;;;;3.52;2.02;;;;;;;17.34;57.90;100032.81;1701432;84;21048;-71
2021/05/25 04:58:26;;;;;;;3.02;1.70;;;;;;;17.15;57.97;100024.38;1705006;84;21136;-71
2021/05/25 05:00:52;;;;;;;3.33;1.20;;;;;;;17.05;57.95;100026.75;1686133;84;21112;-71
2021/05/25 05:03:18;;;;;;;7.70;1.50;;;;;;;16.78;57.95;100033.41;1674661;84;20996;-71
2021/05/25 05:05:44;;;;;;;3.00;1.52;;;;;;;16.48;58.04;100035.34;1689171;84;21163;-71
2021/05/25 05:08:10;;;;;;;8.13;2.33;;;;;;;16.24;58.23;100040.14;1673720;85;21053;-71
2021/05/25 05:10:36;;;;;;;4.55;1.60;;;;;;;15.99;58.38;100043.27;1681492;84;21008;-70
2021/05/25 05:13:08;;;;;;;5.33;1.70;;;;;;;15.71;58.58;100066.95;1692863;84;21520;-70
2021/05/25 05:15:30;;;;;;;5.00;1.62;;;;;;;15.35;58.82;100064.20;1700997;84;21040;-70
2021/05/25 05:17:56;;;;;;;3.83;1.90;;;;;;;15.11;59.07;100072.06;1702039;84;21163;-71
2021/05/25 05:20:22;;;;;;;2.50;1.45;;;;;;;14.92;59.27;100077.22;1676327;84;21009;-70
2021/05/25 05:22:48;;;;;;;3.90;2.33;;;;;;;14.75;59.58;100077.83;1673365;84;21073;-70
2021/05/25 05:25:15;;;;;;;7.10;1.45;;;;;;;14.53;59.88;100085.76;1673211;85;20918;-70
2021/05/25 05:27:41;;;;;;;2.12;1.20;;;;;;;14.37;60.24;100078.89;1673327;85;21024;-70
2021/05/25 05:30:08;;;;;;;5.70;2.05;;;;;;;14.21;60.58;100083.26;1696712;84;21589;-70
2021/05/25 05:32:34;;;;;;;3.25;1.85;;;;;;;14.08;60.92;100083.19;1701762;84;21040;-70
2021/05/25 05:35:00;;;;;;;3.33;1.60;;;;;;;13.99;61.15;100083.89;1702116;84;21069;-70
2021/05/25 05:37:26;;;;;;;5.33;1.95;;;;;;;13.87;61.39;100076.08;1701812;84;21081;-70
2021/05/25 05:39:52;;;;;;;4.15;1.57;;;;;;;13.89;61.63;100092.81;1702149;84;21004;-70
2021/05/25 05:42:18;;;;;;;4.70;1.52;;;;;;;13.89;61.88;100092.81;1701714;84;21309;-70
2021/05/25 05:44:44;;;;;;;7.55;3.20;;;;;;;13.83;62.12;100097.61;1701818;84;21632;-70
2021/05/25 05:47:10;;;;;;;7.03;3.15;;;;;;;13.81;62.36;100102.35;1701942;84;20904;-70
2021/05/25 05:49:38;;;;;;;7.50;3.58;;;;;;;13.82;62.54;100102.17;1701477;84;21659;-70
2021/05/25 05:52:05;;;;;;;5.08;2.30;;;;;;;13.81;62.79;100103.69;1701711;84;21060;-70
2021/05/25 05:54:31;;;;;;;2.92;1.90;;;;;;;13.79;63.06;100110.58;1701786;84;21566;-70
2021/05/25 05:56:57;;;;;;;1.67;1.45;;;;;;;13.80;63.22;100106.88;1702025;84;20966;-70
2021/05/25 05:59:23;;;;;;;5.87;2.72;;;;;;;13.84;63.46;100109.48;1711064;82;21615;-70
2021/05/25 06:01:49;;;;;;;4.72;1.82;;;;;;;13.89;63.63;100116.94;1730528;81;20873;-70
2021/05/25 06:04:15;;;;;;;5.45;1.87;;;;;;;13.94;63.82;100122.52;1730380;82;20980;-70
2021/05/25 06:06:41;;;;;;;3.90;1.70;;;;;;;14.01;63.97;100115.34;1720021;82;21570;-70
2021/05/25 06:09:07;;;;;;;3.20;1.98;;;;;;;14.11;64.11;100107.75;1708091;82;21108;-70
2021/05/25 06:11:33;;;;;;;12.35;3.17;;;;;;;14.22;64.33;100117.91;1714628;82;20927;-70
2021/05/25 06:13:59;;;;;;;5.60;3.20;;;;;;;14.34;64.41;100116.86;1696154;84;20904;-70
2021/05/25 06:16:25;;;;;;;4.70;2.20;;;;;;;14.49;64.49;100125.05;1729074;82;20931;-70
2021/05/25 06:18:51;;;;;;;6.72;2.35;;;;;;;14.58;64.59;100128.89;1730475;82;21706;-70
2021/05/25 06:21:17;;;;;;;10.75;2.77;;;;;;;14.59;64.65;100129.22;1728341;81;20864;-70
2021/05/25 06:23:43;;;;;;;3.70;1.87;;;;;;;14.60;64.71;100131.69;1696111;84;20935;-70
2021/05/25 06:26:09;;;;;;;6.12;2.05;;;;;;;14.60;64.77;100137.59;1696108;84;21624;-70
2021/05/25 06:28:36;;;;;;;3.47;2.42;;;;;;;14.58;64.82;100140.97;1695785;84;20931;-70
2021/05/25 06:31:02;;;;;;;6.20;1.80;;;;;;;14.59;64.89;100135.42;1696094;84;21111;-70
2021/05/25 06:33:28;;;;;;;3.00;1.87;;;;;;;14.66;64.90;100136.27;1674885;82;21050;-70
2021/05/25 06:35:55;;;;;;;8.13;2.27;;;;;;;14.79;64.83;100138.14;1730438;82;21705;-70
2021/05/25 06:38:21;;;;;;;4.45;2.50;;;;;;;14.93;64.88;100146.53;1730026;82;21060;-70
2021/05/25 06:40:46;;;;;;;4.00;1.87;;;;;;;15.06;64.87;100147.88;1699922;82;21042;-70
2021/05/25 06:43:12;;;;;;;7.85;2.27;;;;;;;15.12;64.82;100147.09;1695805;84;21073;-70
2021/05/25 06:45:38;;;;;;;5.15;1.70;;;;;;;15.17;64.78;100151.82;1695828;84;21074;-70
2021/05/25 06:48:05;;;;;;;5.37;2.50;;;;;;;15.21;64.70;100153.06;1695989;84;20899;-70
2021/05/25 06:50:31;;;;;;;3.22;1.80;;;;;;;15.21;64.63;100152.55;1695317;84;21125;-70
2021/05/25 06:52:57;;;;;;;5.50;2.62;;;;;;;15.29;64.54;100155.05;1720996;82;21084;-71
2021/05/25 06:55:23;;;;;;;4.80;1.50;;;;;;;15.34;64.44;100151.75;1730216;82;21180;-70
2021/05/25 06:57:49;;;;;;;5.12;1.47;;;;;;;15.40;64.37;100155.78;1730312;82;20972;-70
2021/05/25 07:00:18;;;;;;;7.40;2.90;;;;;;;15.48;64.28;100162.30;1707658;82;21251;-70
2021/05/25 07:02:44;;;;;;;3.55;1.37;;;;;;;15.51;64.17;100166.97;1702072;84;21540;-70
2021/05/25 07:05:11;;;;;;;8.70;3.22;;;;;;;15.48;64.07;100171.70;1701976;84;20929;-70
2021/05/25 07:07:37;;;;;;;4.20;1.70;;;;;;;15.53;64.00;100175.63;1685676;84;21752;-70
2021/05/25 07:10:04;;;;;;;7.92;1.70;;;;;;;15.45;63.88;100171.26;1673174;85;21116;-70
2021/05/25 07:12:30;;;;;;;4.03;1.67;;;;;;;15.29;63.78;100172.52;1672458;85;21056;-70
2021/05/25 07:14:56;;;;;;;5.33;1.87;;;;;;;15.27;63.81;100174.56;1673248;85;21056;-70
2021/05/25 07:17:22;;;;;;;3.22;1.70;;;;;;;15.22;63.82;100173.53;1673123;85;20940;-70
2021/05/25 07:19:48;;;;;;;4.95;1.98;;;;;;;15.16;63.87;100175.20;1672940;84;21672;-70
2021/05/25 07:22:14;;;;;;;8.10;1.25;;;;;;;15.13;63.91;100175.58;1673347;84;20969;-70
2021/05/25 07:24:40;;;;;;;5.80;3.00;;;;;;;15.10;63.89;100172.47;1672830;84;21624;-70
2021/05/25 07:27:07;;;;;;;7.05;3.15;;;;;;;15.12;63.80;100188.72;1673092;85;21112;-70
2021/05/25 07:29:33;;;;;;;7.42;2.65;;;;;;;15.17;63.76;100196.14;1672749;84;21056;-71
2021/05/25 07:31:59;;;;;;;9.83;1.70;;;;;;;15.08;63.63;100199.56;1673339;84;21665;-71
2021/05/25 07:34:25;;;;;;;6.67;2.52;;;;;;;14.92;63.55;100197.23;1672599;85;21112;-70
2021/05/25 07:36:51;;;;;;;7.20;1.72;;;;;;;14.78;63.49;100209.80;1672901;85;20961;-70
2021/05/25 07:39:17;;;;;;;12.28;1.80;;;;;;;14.62;63.32;100214.70;1673111;84;20957;-71
2021/05/25 07:41:43;;;;;;;5.05;2.25;;;;;;;14.42;63.14;100215.45;1672770;84;21136;-70
2021/05/25 07:44:09;;;;;;;7.47;2.90;;;;;;;14.18;62.83;100209.18;1673143;85;21188;-70
2021/05/25 07:46:36;;;;;;;5.40;2.15;;;;;;;14.23;62.99;100232.73;1673052;85;20949;-70
2021/05/25 07:49:02;;;;;;;7.03;1.80;;;;;;;14.20;62.76;100240.67;1673234;85;21114;-70
2021/05/25 07:51:28;;;;;;;7.70;1.20;;;;;;;14.15;62.75;100233.72;1700221;84;21120;-70
2021/05/25 07:53:54;;;;;;;2.75;1.20;;;;;;;13.90;62.71;100231.17;1701944;83;20910;-70
2021/05/25 07:56:20;;;;;;;3.98;1.80;;;;;;;13.83;62.83;100251.73;1677835;83;21085;-70
2021/05/25 07:58:46;;;;;;;5.53;1.70;;;;;;;13.72;63.02;100253.63;1673028;85;20996;-70
2021/05/25 08:01:12;;;;;;;4.62;2.10;;;;;;;13.64;63.19;100252.42;1697589;83;21071;-70
2021/05/25 08:03:38;;;;;;;6.58;2.50;;;;;;;13.58;63.34;100263.92;1701833;84;21061;-70
2021/05/25 08:06:04;;;;;;;4.42;1.98;;;;;;;13.53;63.48;100260.97;1689716;84;21132;-70
2021/05/25 08:08:34;;;;;;;8.15;2.10;;;;;;;13.52;63.58;100249.42;1673436;85;21286;-70
2021/05/25 08:11:00;;;;;;;6.62;2.40;;;;;;;13.59;63.64;100262.88;1673462;85;21092;-70
2021/05/25 08:13:27;;;;;;;11.50;3.95;;;;;;;13.66;63.71;100257.06;1673070;85;20999;-70
2021/05/25 08:15:54;;;;;;;7.28;2.12;;;;;;;13.66;63.79;100261.92;1673263;85;21104;-70
2021/05/25 08:20:49;;;;;;;6.70;3.47;;;;;;;13.63;64.02;100269.52;1700353;84;21057;-70
2021/05/25 08:23:15;;;;;;;3.60;2.20;;;;;;;13.70;64.13;100270.40;1700513;84;20976;-70
2021/05/25 08:25:42;;;;;;;3.77;1.47;;;;;;;13.77;64.22;100268.61;1700124;84;20930;-70
2021/05/25 08:28:10;;;;;;;6.87;1.40;;;;;;;13.84;64.33;100266.30;1700480;84;21499;-70
2021/05/25 08:30:39;;;;;;;2.15;1.75;;;;;;;13.85;64.37;100251.05;1700354;84;21631;-70
2021/05/25 08:33:05;;;;;;;2.58;1.42;;;;;;;13.78;64.35;100268.93;1700342;84;22798;-70
2021/05/25 08:35:35;;;;;;;6.65;1.37;;;;;;;13.66;64.39;100267.78;1700469;84;20945;-70
2021/05/25 08:37:59;;;;;;;2.40;1.25;;;;;;;13.56;64.47;100274.81;1700055;84;21580;-70
2021/05/25 08:40:27;;;;;;;1.77;1.10;;;;;;;13.49;64.53;100277.44;1700562;84;21081;-70
2021/05/25 08:42:53;;;;;;;1.27;1.17;;;;;;;13.45;64.60;100272.14;1700351;84;21091;-70
2021/05/25 08:45:21;;;;;;;2.80;1.82;;;;;;;13.46;64.64;100274.31;1700576;84;21714;-70
2021/05/25 08:47:49;;;;;;;3.00;2.27;;;;;;;13.45;64.70;100281.52;1696059;81;21037;-70
2021/05/25 08:50:16;;;;;;;8.95;2.65;;;;;;;13.50;64.77;100271.06;1744434;81;21666;-71
2021/05/25 08:52:42;;;;;;;2.83;1.67;;;;;;;13.59;64.85;100261.53;1752079;81;21044;-70
2021/05/25 08:55:09;;;;;;;2.65;1.50;;;;;;;13.73;64.93;100269.50;1751834;81;21674;-70
2021/05/25 08:57:35;;;;;;;4.60;1.37;;;;;;;13.84;64.98;100280.20;1752056;81;21107;-70
2021/05/25 09:00:03;;;;;;;3.72;1.00;;;;;;;13.89;65.02;100281.81;1731152;81;21005;-71
2021/05/25 09:02:29;;;;;;;3.05;1.22;;;;;;;13.90;65.07;100282.11;1700647;84;21064;-70
2021/05/25 09:05:02;;;;;;;3.30;1.17;;;;;;;13.94;65.18;100291.42;1699685;84;21019;-70
2021/05/25 09:07:49;;;;;;;2.17;1.10;;;;;;;14.02;65.22;100293.97;1700332;84;21080;-70
2021/05/25 09:10:36;;;;;;;2.15;1.17;;;;;;;14.05;65.28;100276.15;1700355;84;21104;-71
2021/05/25 09:13:02;;;;;;;1.85;0.95;;;;;;;14.11;65.30;100273.22;1700021;84;21060;-70
2021/05/25 09:15:35;;;;;;;2.15;1.10;;;;;;;14.18;65.35;100282.94;1700521;84;21053;-71
2021/05/25 09:18:04;;;;;;;8.50;2.55;;;;;;;14.44;65.41;100260.34;1700472;84;21140;-70
2021/05/25 09:20:44;;;;;;;5.55;2.22;;;;;;;14.44;65.41;100260.34;1698043;84;21136;-70
2021/05/25 09:23:14;;;;;;;6.75;2.50;;;;;;;14.76;65.35;100266.06;1700376;84;21299;-70
2021/05/25 09:26:04;;;;;;;3.50;1.90;;;;;;;14.95;65.29;100259.95;1701085;84;21066;-70
2021/05/25 09:28:24;;;;;;;1.98;1.02;;;;;;;15.04;65.20;100265.45;1700582;84;21028;-70
2021/05/25 09:30:50;;;;;;;3.40;1.20;;;;;;;15.03;65.10;100244.98;1701855;84;20894;-70
2021/05/25 09:33:16;;;;;;;5.12;1.60;;;;;;;15.27;65.01;100267.80;1701902;84;21133;-71
2021/05/25 09:35:46;;;;;;;3.37;1.52;;;;;;;15.29;64.88;100273.27;1701171;84;21183;-71
2021/05/25 09:38:22;;;;;;;4.30;2.00;;;;;;;15.30;64.65;100266.88;1701995;83;21100;-71
2021/05/25 09:40:50;;;;;;;9.78;2.55;;;;;;;15.33;64.50;100265.12;1689015;84;21068;-71
2021/05/25 09:43:24;;;;;;;5.83;1.95;;;;;;;15.45;64.35;100258.09;1672655;84;21052;-71
2021/05/25 09:46:03;;;;;;;2.85;1.50;;;;;;;15.54;64.17;100260.63;1673081;85;21100;-71
2021/05/25 09:48:33;;;;;;;8.07;2.27;;;;;;;15.48;63.93;100263.59;1673318;84;21620;-71
2021/05/25 09:51:00;;;;;;;6.67;3.05;;;;;;;15.34;63.68;100261.37;1668748;85;21189;-71
2021/05/25 09:53:29;;;;;;;4.95;2.30;;;;;;;15.13;63.37;100252.13;1673101;85;21057;-70
2021/05/25 09:55:57;;;;;;;3.25;1.42;;;;;;;14.97;63.20;100237.74;1673018;85;21103;-70
2021/05/25 09:58:34;;;;;;;4.08;1.85;;;;;;;14.91;63.00;100258.70;1672631;85;21681;-70
2021/05/25 10:01:01;;;;;;;11.18;5.22;;;;;;;14.89;62.75;100263.42;1681598;84;21210;-70
2021/05/25 10:03:28;;;;;;;11.65;3.87;;;;;;;14.88;62.56;100265.82;1708250;84;21133;-70
2021/05/25 10:05:56;;;;;;;8.68;4.70;;;;;;;15.03;62.33;100266.47;1720646;83;21528;-71
2021/05/25 10:08:24;;;;;;;6.72;2.60;;;;;;;15.03;62.33;100266.47;1691752;84;21092;-71
2021/05/25 10:10:52;;;;;;;2.90;1.70;;;;;;;15.04;61.81;100277.53;1723126;83;21616;-70
2021/05/25 10:13:18;;;;;;;3.05;1.72;;;;;;;15.06;61.57;100280.83;1694813;84;21222;-70
2021/05/25 10:15:48;;;;;;;6.33;2.80;;;;;;;15.16;61.38;100274.59;1691697;84;21116;-70
2021/05/25 10:20:42;;;;;;;1.98;1.37;;;;;;;15.25;61.06;100283.27;1720577;83;21088;-70
2021/05/25 10:23:09;;;;;;;1.57;1.10;;;;;;;15.21;60.81;100287.39;1720694;83;21597;-70
2021/05/25 10:25:36;;;;;;;2.62;1.45;;;;;;;15.17;60.66;100284.28;1720418;83;21088;-70
2021/05/25 10:28:12;;;;;;;3.85;1.10;;;;;;;15.19;60.41;100285.44;1720088;83;21053;-70
2021/05/25 10:30:44;;;;;;;3.25;1.50;;;;;;;15.25;60.32;100281.42;1683769;84;21548;-70
2021/05/25 10:33:19;;;;;;;5.00;1.60;;;;;;;15.28;60.16;100294.44;1688809;84;21094;-70
2021/05/25 10:36:01;;;;;;;1.87;1.10;;;;;;;15.27;60.05;100283.92;1696267;84;21057;-71
2021/05/25 10:38:36;;;;;;;2.08;1.10;;;;;;;15.23;59.93;100286.19;1696434;84;21938;-71
2021/05/25 10:41:05;;;;;;;2.27;1.20;;;;;;;15.12;59.79;100284.08;1696339;84;21094;-71
2021/05/25 10:43:39;;;;;;;1.75;1.17;;;;;;;15.20;59.71;100304.02;1697408;84;21083;-70
2021/05/25 10:46:18;;;;;;;4.22;2.50;;;;;;;15.17;59.58;100305.77;1687039;84;21070;-70
2021/05/25 10:49:14;;;;;;;10.18;3.95;;;;;;;15.20;59.55;100297.30;1698357;83;21052;-70
2021/05/25 10:51:53;;;;;;;4.53;1.87;;;;;;;15.28;59.52;100285.04;1696373;84;21551;-70
2021/05/25 10:54:45;;;;;;;1.40;1.00;;;;;;;15.51;59.49;100271.28;1697164;83;21061;-70
2021/05/25 10:57:36;;;;;;;2.75;1.30;;;;;;;15.87;59.32;100277.58;1709739;83;21009;-71
2021/05/25 11:00:19;;;;;;;2.25;1.22;;;;;;;16.31;58.90;100283.15;1687973;83;21057;-70
2021/05/25 11:02:52;;;;;;;6.45;2.60;;;;;;;16.43;58.33;100286.03;1688949;84;21021;-70
2021/05/25 11:05:37;;;;;;;9.28;3.10;;;;;;;16.62;58.04;100274.40;1674346;84;21233;-71
2021/05/25 11:08:18;;;;;;;8.80;3.40;;;;;;;16.90;57.71;100282.16;1687113;84;21109;-71
2021/05/25 11:11:10;;;;;;;4.22;1.22;;;;;;;16.98;57.19;100285.97;1687722;83;21085;-70
2021/05/25 11:13:40;;;;;;;6.45;1.15;;;;;;;17.00;56.93;100283.88;1684493;83;21053;-72
2021/05/25 11:16:20;;;;;;;5.83;1.15;;;;;;;17.54;56.77;100281.19;1686400;83;21066;-70
2021/05/25 11:19:00;;;;;;;2.33;0.82;;;;;;;17.66;56.06;100272.75;1690378;84;21625;-70
2021/05/25 11:24:37;;;;;;;5.78;1.55;;;;;;;18.17;55.23;100257.66;1694000;84;21056;-70
2021/05/25 11:27:10;;;;;;;5.20;1.55;;;;;;;18.18;54.80;100262.84;1683396;84;21748;-70
2021/05/25 11:29:52;;;;;;;4.83;1.80;;;;;;;18.34;54.57;100276.28;1694650;84;21029;-71
2021/05/25 11:32:25;;;;;;;3.02;1.22;;;;;;;18.51;54.25;100271.17;1684064;84;21828;-71
2021/05/25 11:35:05;;;;;;;1.75;1.25;;;;;;;18.65;53.91;100273.99;1686340;83;21021;-71
2021/05/25 11:37:33;;;;;;;2.17;1.00;;;;;;;18.59;53.41;100274.90;1690533;83;21053;-70
2021/05/25 11:39:59;;;;;;;2.65;1.40;;;;;;;18.37;53.09;100279.35;1687493;83;21128;-71
2021/05/25 11:42:31;;;;;;;4.78;1.30;;;;;;;18.02;52.54;100279.59;1694324;84;21604;-70